Time;durP1;ratioP1;P1;durP2;ratioP2;P2;SDS_P1;SDS_P2;PMS_P1;PMS_P2;Temp;Humidity;BMP_temperature;BMP_pressure;BME280_temperature;BME280_humidity;BME280_pressure;Samples;Min_cycle;Max_cycle;Signal;HPM_P1;HPM_P2
2022/04/23 00:01:30;;;;;;;0.63;0.60;;;14.30;67.80;;;;;;5009636;28;20181;-73
2022/04/23 00:03:56;;;;;;;0.40;0.40;;;;;;;;;;5009292;28;20239;-73
2022/04/23 00:06:22;;;;;;;0.47;0.47;;;14.40;68.20;;;;;;5008858;28;20192;-72
2022/04/23 00:08:48;;;;;;;1.60;0.57;;;;;;;;;;5009679;28;20594;-73
2022/04/23 00:11:14;;;;;;;0.63;0.60;;;14.40;68.30;;;;;;5010441;28;20295;-73
2022/04/23 00:13:39;;;;;;;1.38;0.50;;;14.40;68.30;;;;;;5006215;28;20291;-73
2022/04/23 00:16:06;;;;;;;0.82;0.70;;;14.30;68.30;;;;;;5014419;28;20933;-73
2022/04/23 00:18:32;;;;;;;0.50;0.50;;;14.40;68.30;;;;;;5009806;28;20193;-73
2022/04/23 00:20:58;;;;;;;0.68;0.63;;;;;;;;;;5007551;28;20180;-73
2022/04/23 00:23:25;;;;;;;1.95;0.88;;;14.30;68.40;;;;;;5011286;28;20208;-73
2022/04/23 00:25:52;;;;;;;0.63;0.50;;;14.30;68.40;;;;;;5010913;28;20188;-73
2022/04/23 00:28:18;;;;;;;0.70;0.70;;;14.30;68.40;;;;;;5008391;28;20215;-73
2022/04/23 00:30:45;;;;;;;1.55;0.55;;;14.30;68.30;;;;;;5008977;28;20191;-73
2022/04/23 00:33:11;;;;;;;0.55;0.52;;;14.30;68.20;;;;;;5014034;28;20188;-73
2022/04/23 00:35:38;;;;;;;0.82;0.60;;;14.30;68.30;;;;;;5009128;28;20310;-73
2022/04/23 00:38:05;;;;;;;1.75;0.82;;;14.30;68.30;;;;;;5008777;28;20180;-75
2022/04/23 00:40:31;;;;;;;0.98;0.70;;;14.30;68.40;;;;;;5009584;28;20192;-72
2022/04/23 00:42:58;;;;;;;2.70;0.85;;;14.30;68.50;;;;;;5012323;28;20176;-72
2022/04/23 00:45:26;;;;;;;0.70;0.70;;;14.30;68.30;;;;;;5013029;28;20208;-72
2022/04/23 00:47:52;;;;;;;0.60;0.60;;;14.40;68.20;;;;;;5010241;28;20185;-73
2022/04/23 00:50:21;;;;;;;0.60;0.60;;;14.40;68.40;;;;;;5009645;28;20591;-72
2022/04/23 00:52:50;;;;;;;0.88;0.70;;;14.40;68.50;;;;;;5006148;28;20185;-72
2022/04/23 00:55:18;;;;;;;2.22;0.82;;;14.30;69.00;;;;;;5005237;28;20805;-72
2022/04/23 00:57:43;;;;;;;0.60;0.60;;;14.30;68.70;;;;;;5009017;28;20192;-73
2022/04/23 01:00:09;;;;;;;0.60;0.60;;;14.30;68.50;;;;;;5009837;28;20177;-72
2022/04/23 01:02:39;;;;;;;1.30;0.60;;;14.30;68.50;;;;;;5003876;28;20188;-74
2022/04/23 01:05:09;;;;;;;2.45;0.68;;;14.40;68.20;;;;;;5008417;28;20274;-73
2022/04/23 01:07:42;;;;;;;0.60;0.60;;;14.40;68.10;;;;;;5007457;28;20193;-73
2022/04/23 01:10:10;;;;;;;0.60;0.60;;;14.30;68.80;;;;;;5008980;28;20192;-74
2022/04/23 01:12:37;;;;;;;0.50;0.50;;;14.30;68.50;;;;;;5008935;28;20212;-72
2022/04/23 01:15:14;;;;;;;1.20;0.63;;;14.60;68.20;;;;;;5007604;28;20200;-73
2022/04/23 01:17:41;;;;;;;3.80;0.50;;;14.60;68.20;;;;;;5010315;28;20184;-72
2022/04/23 01:20:09;;;;;;;4.78;0.77;;;14.60;68.20;;;;;;5010959;28;20188;-73
2022/04/23 01:22:37;;;;;;;0.85;0.85;;;14.70;67.80;;;;;;5004938;28;20295;-72
2022/04/23 01:25:07;;;;;;;1.38;0.60;;;14.80;67.90;;;;;;5006045;28;20215;-71
2022/04/23 01:27:36;;;;;;;0.60;0.52;;;14.80;67.60;;;;;;5009791;28;20560;-72
2022/04/23 01:30:04;;;;;;;0.60;0.60;;;14.80;67.60;;;;;;5003674;28;20223;-73
2022/04/23 01:32:29;;;;;;;1.35;1.08;;;14.90;67.60;;;;;;5011690;28;20179;-74
2022/04/23 01:34:55;;;;;;;0.70;0.63;;;15.00;67.20;;;;;;5009958;28;20180;-73
2022/04/23 01:37:21;;;;;;;1.85;0.80;;;15.00;67.20;;;;;;5014516;28;20185;-73
2022/04/23 01:39:47;;;;;;;1.70;0.73;;;15.10;67.00;;;;;;5006702;28;20176;-73
2022/04/23 01:42:14;;;;;;;4.22;1.05;;;15.20;67.00;;;;;;5012919;28;20180;-73
2022/04/23 01:44:40;;;;;;;1.33;0.70;;;15.30;66.70;;;;;;5004050;28;20217;-73
2022/04/23 01:47:06;;;;;;;1.65;0.57;;;15.40;66.60;;;;;;5012917;28;20191;-72
2022/04/23 01:49:31;;;;;;;1.02;0.80;;;15.40;66.60;;;;;;5010140;28;20180;-73
2022/04/23 01:51:57;;;;;;;1.05;0.93;;;15.50;66.70;;;;;;5010947;28;20647;-73
2022/04/23 01:54:23;;;;;;;1.88;0.60;;;15.40;66.90;;;;;;5007987;28;20215;-73
2022/04/23 01:56:49;;;;;;;0.85;0.85;;;15.40;67.30;;;;;;5009985;28;20207;-73
2022/04/23 01:59:15;;;;;;;0.55;0.55;;;15.30;66.90;;;;;;5007280;28;20197;-73
2022/04/23 02:01:41;;;;;;;0.80;0.80;;;15.30;67.00;;;;;;5002500;28;20280;-72
2022/04/23 02:04:08;;;;;;;0.63;0.63;;;15.20;67.30;;;;;;5023666;28;20713;-72
2022/04/23 02:06:34;;;;;;;1.23;0.68;;;15.10;67.20;;;;;;5010299;28;20270;-74
2022/04/23 02:09:03;;;;;;;0.70;0.68;;;15.10;67.20;;;;;;5003690;28;20196;-72
2022/04/23 02:11:29;;;;;;;0.57;0.57;;;15.00;68.00;;;;;;5015199;28;20185;-73
2022/04/23 02:13:54;;;;;;;0.65;0.65;;;15.00;67.90;;;;;;5009521;28;20693;-73
2022/04/23 02:16:21;;;;;;;1.70;0.77;;;14.90;67.90;;;;;;5009089;28;20626;-73
2022/04/23 02:18:46;;;;;;;0.85;0.85;;;14.90;68.10;;;;;;5007034;28;20189;-72
2022/04/23 02:21:12;;;;;;;2.50;0.80;;;14.90;68.10;;;;;;5012045;28;20188;-73
2022/04/23 02:23:38;;;;;;;1.50;0.50;;;14.90;68.20;;;;;;5007300;28;20278;-72
2022/04/23 02:26:05;;;;;;;0.93;0.60;;;14.80;68.30;;;;;;5007654;28;20185;-73
2022/04/23 02:28:32;;;;;;;2.28;1.08;;;14.70;68.10;;;;;;5009539;28;20185;-72
2022/04/23 02:30:58;;;;;;;0.57;0.57;;;14.70;68.30;;;;;;5012440;28;20192;-72
2022/04/23 02:33:24;;;;;;;1.38;0.50;;;14.60;67.90;;;;;;5011576;28;20181;-72
2022/04/23 02:35:50;;;;;;;2.67;0.60;;;14.60;68.00;;;;;;5012301;28;20271;-72
2022/04/23 02:38:17;;;;;;;0.85;0.85;;;14.50;69.50;;;;;;5006526;28;20197;-72
2022/04/23 02:40:43;;;;;;;0.88;0.88;;;14.50;70.20;;;;;;5009518;28;20184;-72
2022/04/23 02:43:12;;;;;;;0.70;0.70;;;14.50;70.20;;;;;;5013476;28;20330;-72
2022/04/23 02:45:38;;;;;;;1.77;1.10;;;14.40;70.40;;;;;;5011856;28;20203;-72
2022/04/23 02:48:04;;;;;;;0.70;0.70;;;14.30;70.40;;;;;;5009036;28;20924;-73
2022/04/23 02:50:37;;;;;;;1.30;0.88;;;14.20;70.50;;;;;;5015027;28;20185;-71
2022/04/23 02:53:04;;;;;;;2.05;0.88;;;14.00;71.00;;;;;;5010374;28;20256;-72
2022/04/23 02:55:31;;;;;;;1.15;1.05;;;13.90;70.40;;;;;;5011427;28;20199;-73
2022/04/23 02:58:07;;;;;;;1.08;0.70;;;13.90;71.00;;;;;;5013293;28;20205;-73
2022/04/23 03:00:33;;;;;;;0.80;0.80;;;13.80;71.00;;;;;;5016057;28;20192;-72
2022/04/23 03:02:59;;;;;;;2.83;0.70;;;13.70;70.40;;;;;;5011109;28;20184;-72
2022/04/23 03:05:26;;;;;;;0.68;0.60;;;13.70;72.10;;;;;;5012657;28;20212;-72
2022/04/23 03:07:52;;;;;;;0.68;0.65;;;13.70;71.00;;;;;;5012391;28;20242;-73
2022/04/23 03:10:19;;;;;;;0.80;0.80;;;13.60;71.70;;;;;;5012947;28;20188;-72
2022/04/23 03:12:45;;;;;;;1.23;0.63;;;13.60;71.70;;;;;;5012103;28;20779;-71
2022/04/23 03:15:13;;;;;;;1.30;0.80;;;13.50;72.40;;;;;;5010974;28;20724;-72
2022/04/23 03:17:39;;;;;;;1.95;0.65;;;13.50;71.40;;;;;;5014620;28;20263;-73
2022/04/23 03:20:08;;;;;;;3.80;0.90;;;13.50;72.60;;;;;;5011370;28;20193;-72
2022/04/23 03:22:34;;;;;;;1.13;0.95;;;13.40;72.00;;;;;;5010069;28;20181;-73
2022/04/23 03:25:00;;;;;;;1.88;0.82;;;13.40;72.10;;;;;;5012201;28;20219;-74
2022/04/23 03:27:26;;;;;;;1.17;1.00;;;13.40;73.30;;;;;;5017480;28;20189;-74
2022/04/23 03:29:51;;;;;;;0.95;0.95;;;13.40;73.40;;;;;;5012335;28;20181;-73
2022/04/23 03:32:18;;;;;;;0.90;0.70;;;13.30;72.90;;;;;;5011851;28;20185;-73
2022/04/23 03:34:43;;;;;;;0.70;0.70;;;13.20;72.10;;;;;;5011057;28;20188;-72
2022/04/23 03:37:09;;;;;;;1.13;1.08;;;13.20;71.80;;;;;;5009836;28;20187;-72
2022/04/23 03:39:36;;;;;;;1.75;1.15;;;13.20;73.00;;;;;;5012365;28;20263;-73
2022/04/23 03:42:03;;;;;;;0.82;0.82;;;13.20;72.50;;;;;;5008035;28;20203;-74
2022/04/23 03:44:30;;;;;;;0.93;0.93;;;13.10;72.60;;;;;;5007085;28;20216;-73
2022/04/23 03:46:57;;;;;;;1.38;0.80;;;13.20;73.20;;;;;;5014031;28;20942;-72
2022/04/23 03:49:23;;;;;;;3.88;1.00;;;13.10;73.40;;;;;;5006782;28;20181;-72
2022/04/23 03:51:50;;;;;;;1.25;0.90;;;13.20;73.70;;;;;;5010098;28;20177;-72
2022/04/23 03:54:16;;;;;;;1.45;0.70;;;13.10;73.10;;;;;;5008100;28;20192;-73
2022/04/23 03:56:43;;;;;;;1.75;1.08;;;13.10;74.10;;;;;;5009847;28;20329;-72
2022/04/23 03:59:08;;;;;;;1.95;1.02;;;13.10;74.10;;;;;;5008109;28;21308;-73
2022/04/23 04:01:34;;;;;;;0.60;0.60;;;13.10;74.20;;;;;;5006223;28;20255;-73
2022/04/23 04:04:01;;;;;;;1.75;0.73;;;13.00;74.20;;;;;;5008304;28;20762;-72
2022/04/23 04:06:27;;;;;;;0.73;0.73;;;13.00;74.10;;;;;;5013180;28;20200;-72
2022/04/23 04:08:53;;;;;;;2.83;0.93;;;13.00;73.80;;;;;;5011326;28;20177;-72
2022/04/23 04:11:19;;;;;;;1.73;1.00;;;13.00;73.90;;;;;;5011763;28;20694;-74
2022/04/23 04:13:45;;;;;;;1.33;1.08;;;13.00;73.90;;;;;;5007670;28;20225;-72
2022/04/23 04:16:12;;;;;;;0.70;0.70;;;13.00;74.10;;;;;;5010655;28;20730;-72
2022/04/23 04:18:38;;;;;;;1.00;0.98;;;12.90;74.10;;;;;;5012824;28;20651;-72
2022/04/23 04:21:05;;;;;;;0.85;0.85;;;12.80;74.10;;;;;;5015649;28;20195;-71
2022/04/23 04:23:31;;;;;;;1.08;0.85;;;12.90;74.20;;;;;;5008314;28;20176;-72
2022/04/23 04:25:57;;;;;;;0.77;0.77;;;12.90;74.20;;;;;;5007204;28;20215;-73
2022/04/23 04:28:23;;;;;;;0.80;0.75;;;12.90;74.20;;;;;;5009757;28;20185;-73
2022/04/23 04:33:33;;;;;;;0.95;0.95;;;13.00;74.70;;;;;;5010105;28;20200;-71
2022/04/23 04:35:59;;;;;;;0.88;0.88;;;13.00;73.90;;;;;;5013386;28;20184;-73
2022/04/23 04:38:24;;;;;;;0.75;0.75;;;13.00;74.20;;;;;;5011833;28;20216;-73
2022/04/23 04:40:51;;;;;;;0.80;0.80;;;;;;;;;;5006389;28;20180;-72
2022/04/23 04:43:17;;;;;;;0.85;0.85;;;13.10;75.20;;;;;;5010033;28;20195;-75
2022/04/23 04:45:43;;;;;;;2.65;1.30;;;13.10;74.70;;;;;;5010554;28;20195;-74
2022/04/23 04:48:08;;;;;;;0.95;0.95;;;13.10;74.30;;;;;;5006257;28;20239;-74
2022/04/23 04:50:34;;;;;;;1.70;0.80;;;13.10;74.30;;;;;;5010460;28;20185;-74
2022/04/23 04:53:00;;;;;;;0.82;0.82;;;13.20;73.70;;;;;;5011163;28;20179;-73
2022/04/23 04:55:25;;;;;;;0.70;0.70;;;13.20;74.10;;;;;;5011421;28;20189;-72
2022/04/23 04:57:51;;;;;;;0.55;0.55;;;13.30;73.80;;;;;;5012104;28;20184;-73
2022/04/23 05:00:20;;;;;;;1.65;1.00;;;13.40;73.60;;;;;;5006902;28;20277;-73
2022/04/23 05:02:47;;;;;;;2.47;0.68;;;13.40;73.80;;;;;;5009512;28;20215;-73
2022/04/23 05:05:12;;;;;;;0.75;0.70;;;13.50;73.90;;;;;;5006658;28;20232;-73
2022/04/23 05:07:38;;;;;;;1.50;0.82;;;13.60;74.10;;;;;;5011277;28;20689;-72
2022/04/23 05:10:04;;;;;;;1.60;1.13;;;13.70;73.90;;;;;;5007938;28;20195;-71
2022/04/23 05:12:30;;;;;;;3.13;1.10;;;13.80;73.90;;;;;;5009203;28;20180;-72
2022/04/23 05:14:56;;;;;;;0.88;0.88;;;14.00;74.00;;;;;;5009439;28;20602;-73
2022/04/23 05:17:22;;;;;;;0.90;0.90;;;14.10;74.00;;;;;;5006257;28;20192;-72
2022/04/23 05:19:47;;;;;;;2.70;0.88;;;14.20;73.90;;;;;;5006087;28;20289;-72
2022/04/23 05:22:14;;;;;;;1.30;1.30;;;14.30;73.60;;;;;;5011961;28;20184;-73
2022/04/23 05:24:40;;;;;;;2.53;1.50;;;14.40;73.20;;;;;;5007340;28;20299;-73
2022/04/23 05:27:05;;;;;;;1.50;1.17;;;14.40;73.00;;;;;;5010764;28;20998;-73
2022/04/23 05:29:31;;;;;;;1.27;1.17;;;14.50;72.80;;;;;;5004628;28;20180;-74
2022/04/23 05:31:57;;;;;;;2.42;1.30;;;14.50;72.90;;;;;;5009133;28;20271;-73
2022/04/23 05:34:25;;;;;;;1.10;1.10;;;14.50;72.80;;;;;;5010669;28;20188;-74
2022/04/23 05:36:50;;;;;;;1.95;1.10;;;14.60;73.00;;;;;;5005883;28;20181;-74
2022/04/23 05:39:16;;;;;;;3.78;1.50;;;14.60;73.00;;;;;;5007855;28;20676;-74
2022/04/23 05:41:42;;;;;;;1.33;0.98;;;14.60;73.20;;;;;;5004779;28;20181;-75
2022/04/23 05:44:08;;;;;;;2.03;1.05;;;;;;;;;;5007637;28;20217;-75
2022/04/23 05:46:33;;;;;;;0.85;0.85;;;14.80;73.10;;;;;;5010012;28;20181;-75
2022/04/23 05:49:00;;;;;;;2.95;0.80;;;14.80;73.00;;;;;;5012660;28;20199;-76
2022/04/23 05:51:25;;;;;;;0.80;0.80;;;14.90;73.30;;;;;;5009577;28;20279;-76
2022/04/23 05:53:51;;;;;;;1.23;1.17;;;14.90;73.60;;;;;;5012428;28;20719;-76
2022/04/23 05:56:17;;;;;;;3.95;1.83;;;15.00;73.50;;;;;;5010745;28;20233;-76
2022/04/23 05:58:42;;;;;;;0.82;0.82;;;15.10;73.60;;;;;;5007523;28;20177;-76
2022/04/23 06:01:08;;;;;;;1.75;1.00;;;15.10;74.10;;;;;;5011806;28;20201;-76
2022/04/23 06:03:34;;;;;;;0.90;0.90;;;15.20;74.30;;;;;;5011856;28;20272;-76
2022/04/23 06:06:00;;;;;;;0.82;0.82;;;15.20;74.50;;;;;;5010701;28;20176;-76
2022/04/23 06:08:25;;;;;;;0.77;0.77;;;15.30;74.20;;;;;;5009446;28;20627;-76
2022/04/23 06:10:51;;;;;;;1.02;1.02;;;15.40;74.60;;;;;;5011042;28;20177;-76
2022/04/23 06:13:17;;;;;;;1.15;0.77;;;15.50;74.60;;;;;;5013993;28;20189;-75
2022/04/23 06:15:43;;;;;;;1.15;0.80;;;15.60;74.40;;;;;;5013282;28;20600;-75
2022/04/23 06:18:09;;;;;;;0.70;0.70;;;15.70;74.30;;;;;;5014864;28;20184;-76
2022/04/23 06:20:35;;;;;;;0.75;0.75;;;;;;;;;;5013824;28;20271;-74
2022/04/23 06:23:04;;;;;;;0.82;0.75;;;15.90;74.10;;;;;;5016590;28;20180;-74
2022/04/23 06:25:31;;;;;;;1.20;1.20;;;16.00;73.90;;;;;;5013720;28;20224;-75
2022/04/23 06:27:57;;;;;;;1.15;1.15;;;16.10;73.90;;;;;;5016153;28;20184;-75
2022/04/23 06:30:25;;;;;;;1.90;1.13;;;16.20;73.90;;;;;;5015811;28;20176;-76
2022/04/23 06:32:51;;;;;;;0.80;0.80;;;16.30;73.40;;;;;;5011981;28;20310;-75
2022/04/23 06:35:17;;;;;;;1.05;0.93;;;16.40;73.20;;;;;;5013521;28;20217;-75
2022/04/23 06:37:44;;;;;;;0.90;0.90;;;16.50;73.00;;;;;;5012014;28;20191;-75
2022/04/23 06:40:11;;;;;;;2.97;1.13;;;16.50;72.70;;;;;;5010319;28;20271;-74
2022/04/23 06:42:41;;;;;;;0.70;0.70;;;16.50;72.60;;;;;;5014418;28;20185;-73
2022/04/23 06:45:07;;;;;;;1.10;0.90;;;16.60;72.60;;;;;;5008831;28;20757;-73
2022/04/23 06:47:33;;;;;;;2.40;2.20;;;16.60;72.50;;;;;;5008964;28;20192;-73
2022/04/23 06:49:59;;;;;;;12.00;2.28;;;16.70;72.30;;;;;;5012981;28;20280;-74
2022/04/23 06:52:26;;;;;;;1.73;1.65;;;16.70;72.50;;;;;;5009641;28;20646;-74
2022/04/23 06:54:54;;;;;;;1.90;1.80;;;16.70;72.60;;;;;;5009728;28;20225;-73
2022/04/23 06:57:22;;;;;;;1.48;1.48;;;16.70;72.80;;;;;;5010241;28;20183;-74
2022/04/23 06:59:48;;;;;;;1.70;1.60;;;16.70;73.00;;;;;;5010725;28;20454;-74
2022/04/23 07:02:14;;;;;;;4.30;1.30;;;16.70;73.00;;;;;;5014197;28;20197;-75
2022/04/23 07:04:40;;;;;;;1.45;1.35;;;16.70;72.90;;;;;;5009536;28;20953;-75
2022/04/23 07:07:05;;;;;;;1.17;1.17;;;16.80;73.00;;;;;;5010849;28;20191;-74
2022/04/23 07:09:31;;;;;;;3.50;1.20;;;16.70;73.50;;;;;;5010559;28;20670;-77
2022/04/23 07:11:58;;;;;;;0.80;0.80;;;16.70;73.50;;;;;;5009421;28;20211;-76
2022/04/23 07:14:25;;;;;;;2.45;1.08;;;16.80;73.40;;;;;;5013491;28;20844;-74
2022/04/23 07:16:51;;;;;;;0.82;0.82;;;16.80;73.00;;;;;;5010610;28;20691;-74
2022/04/23 07:19:17;;;;;;;1.00;1.00;;;;;;;;;;5012625;28;20181;-74
2022/04/23 07:21:42;;;;;;;2.13;0.95;;;16.90;72.70;;;;;;5011712;28;20654;-74
2022/04/23 07:24:10;;;;;;;0.90;0.85;;;16.90;72.80;;;;;;5010931;28;20359;-75
2022/04/23 07:26:37;;;;;;;0.70;0.70;;;16.90;73.20;;;;;;5006513;28;20184;-74
2022/04/23 07:29:06;;;;;;;2.60;0.80;;;17.00;73.00;;;;;;5009211;28;20212;-74
2022/04/23 07:31:32;;;;;;;0.65;0.65;;;17.00;73.30;;;;;;5012708;28;20219;-75
2022/04/23 07:39:27;;;;;;;0.65;0.65;;;17.30;72.80;;;;;;5017660;28;20199;-74
2022/04/23 07:41:54;;;;;;;2.92;0.85;;;17.40;72.60;;;;;;5012717;28;20180;-75
2022/04/23 07:44:22;;;;;;;2.22;0.95;;;17.60;72.40;;;;;;5015304;28;20212;-75
2022/04/23 07:46:49;;;;;;;1.13;1.02;;;17.70;72.20;;;;;;5022427;28;20280;-75
2022/04/23 07:49:15;;;;;;;0.90;0.90;;;17.90;72.10;;;;;;5020625;28;20212;-75
2022/04/23 07:51:42;;;;;;;0.88;0.68;;;18.10;71.80;;;;;;5014754;28;20212;-75
2022/04/23 07:54:08;;;;;;;0.90;0.90;;;18.20;71.50;;;;;;5013263;28;20263;-75
2022/04/23 07:56:35;;;;;;;0.70;0.70;;;18.30;71.20;;;;;;5010989;28;20271;-75
2022/04/23 07:59:00;;;;;;;0.77;0.77;;;18.40;70.60;;;;;;5008330;28;20181;-75
2022/04/23 08:01:26;;;;;;;4.13;0.77;;;18.30;70.80;;;;;;5006466;28;20185;-75
2022/04/23 08:03:52;;;;;;;1.13;1.13;;;18.30;71.10;;;;;;5013169;28;20565;-77
2022/04/23 08:06:18;;;;;;;0.68;0.68;;;18.20;71.90;;;;;;5008282;28;20201;-76
2022/04/23 08:08:43;;;;;;;3.05;1.25;;;18.20;71.90;;;;;;5012385;28;20231;-76
2022/04/23 08:11:12;;;;;;;0.65;0.65;;;18.10;72.00;;;;;;5013995;28;20246;-76
2022/04/23 08:13:38;;;;;;;2.53;1.00;;;18.10;72.60;;;;;;5009693;28;20188;-75
2022/04/23 08:16:05;;;;;;;0.80;0.80;;;18.30;72.60;;;;;;5011056;28;20196;-76
2022/04/23 08:18:30;;;;;;;0.85;0.85;;;18.30;72.60;;;;;;5007520;28;20275;-76
2022/04/23 08:20:56;;;;;;;1.70;0.80;;;18.40;72.20;;;;;;5013150;28;20193;-75
2022/04/23 08:23:22;;;;;;;0.60;0.60;;;18.50;72.10;;;;;;5012901;28;20185;-75
2022/04/23 08:25:48;;;;;;;0.68;0.68;;;18.50;71.30;;;;;;5009768;28;20196;-75
2022/04/23 08:30:59;;;;;;;0.75;0.65;;;18.60;70.80;;;;;;5007615;28;20237;-78
2022/04/23 08:33:57;;;;;;;2.85;0.60;;;18.60;71.20;;;;;;5010669;28;20188;-76
2022/04/23 08:36:10;;;;;;;0.40;0.40;;;18.50;70.50;;;;;;5008018;28;20185;-77
2022/04/23 08:38:36;;;;;;;8.88;0.30;;;18.40;70.40;;;;;;5013108;28;20187;-74
2022/04/23 08:41:04;;;;;;;0.40;0.40;;;18.40;70.40;;;;;;5012284;28;20266;-77
2022/04/23 08:43:32;;;;;;;1.05;0.50;;;18.30;70.20;;;;;;5012997;28;20188;-75
2022/04/23 08:46:02;;;;;;;2.25;0.40;;;18.30;70.30;;;;;;5008288;28;20195;-75
2022/04/23 08:48:37;;;;;;;2.80;0.50;;;18.30;70.00;;;;;;5007025;28;20190;-75
2022/04/23 08:51:05;;;;;;;1.17;0.40;;;18.40;69.70;;;;;;5010569;28;21070;-74
2022/04/23 08:53:34;;;;;;;0.35;0.35;;;18.40;69.70;;;;;;5011779;28;20185;-73
2022/04/23 08:56:01;;;;;;;2.67;0.52;;;18.20;69.20;;;;;;5010346;28;20193;-74
2022/04/23 08:58:26;;;;;;;0.75;0.40;;;18.20;69.40;;;;;;5008449;28;20184;-75
2022/04/23 09:00:52;;;;;;;0.40;0.40;;;18.20;69.20;;;;;;5011441;28;20191;-74
2022/04/23 09:03:18;;;;;;;0.43;0.43;;;18.10;69.20;;;;;;5009735;28;20176;-72
2022/04/23 09:05:50;;;;;;;2.65;0.45;;;18.10;69.40;;;;;;5012448;28;20785;-74
2022/04/23 09:08:16;;;;;;;0.52;0.30;;;18.20;69.60;;;;;;5010422;28;20203;-76
2022/04/23 09:10:44;;;;;;;2.58;0.47;;;18.30;69.50;;;;;;5008449;28;20185;-76
2022/04/23 09:13:11;;;;;;;0.40;0.40;;;18.70;69.30;;;;;;5007982;28;20215;-75
2022/04/23 09:24:09;;;;;;;0.35;0.35;;;19.50;67.50;;;;;;5008560;28;20249;-73
2022/04/23 09:26:35;;;;;;;0.47;0.40;;;19.60;67.40;;;;;;5004887;28;20196;-74
2022/04/23 09:29:21;;;;;;;1.13;0.40;;;19.90;66.10;;;;;;5010640;28;20182;-74
2022/04/23 09:31:46;;;;;;;3.15;0.30;;;19.90;66.10;;;;;;5006776;28;20250;-73
2022/04/23 09:34:23;;;;;;;0.50;0.50;;;19.90;66.00;;;;;;5009598;28;20704;-78
2022/04/23 09:36:57;;;;;;;5.95;0.70;;;19.60;65.70;;;;;;5008557;28;20586;-74
2022/04/23 09:39:36;;;;;;;2.88;0.60;;;19.40;66.10;;;;;;5010322;28;20188;-76
2022/04/23 09:42:15;;;;;;;0.40;0.40;;;19.30;67.50;;;;;;5014106;28;20298;-76
2022/04/23 09:44:42;;;;;;;0.57;0.40;;;18.80;68.70;;;;;;5023018;28;20216;-75
2022/04/23 09:47:08;;;;;;;0.40;0.40;;;18.30;70.20;;;;;;5013426;28;20922;-78
2022/04/23 09:49:34;;;;;;;1.45;0.57;;;18.30;70.30;;;;;;5004503;28;20275;-74
2022/04/23 09:52:11;;;;;;;0.50;0.50;;;18.30;70.20;;;;;;5005935;28;21093;-75
2022/04/23 09:54:38;;;;;;;0.52;0.52;;;18.30;71.30;;;;;;5011176;28;20226;-75
2022/04/23 09:57:04;;;;;;;1.02;0.73;;;18.40;71.40;;;;;;5009247;28;20185;-74
2022/04/23 09:59:30;;;;;;;2.17;0.70;;;18.40;71.10;;;;;;5008817;28;20884;-75
2022/04/23 10:01:56;;;;;;;0.57;0.57;;;18.70;71.20;;;;;;5008226;28;20181;-74
2022/04/23 10:04:25;;;;;;;2.17;0.75;;;18.90;71.70;;;;;;5012288;28;20227;-74
2022/04/23 10:06:52;;;;;;;1.38;0.65;;;19.40;70.40;;;;;;5009518;28;20255;-74
2022/04/23 10:09:21;;;;;;;0.45;0.43;;;19.90;70.00;;;;;;5003209;28;20187;-74
2022/04/23 10:11:50;;;;;;;2.05;0.52;;;20.40;68.30;;;;;;5009747;28;20257;-76
2022/04/23 10:14:22;;;;;;;1.55;0.50;;;20.90;67.20;;;;;;5023391;28;20770;-74
2022/04/23 10:16:49;;;;;;;0.43;0.43;;;21.30;65.00;;;;;;5008949;28;20208;-75
2022/04/23 10:19:15;;;;;;;0.43;0.43;;;21.60;64.20;;;;;;5008177;28;20176;-73
2022/04/23 10:21:53;;;;;;;1.08;0.60;;;22.60;63.50;;;;;;5010584;28;20181;-74
2022/04/23 10:24:36;;;;;;;2.17;0.60;;;22.70;63.50;;;;;;5009384;28;20217;-77
2022/04/23 10:27:07;;;;;;;2.72;0.77;;;23.50;62.40;;;;;;5008457;28;20690;-73
2022/04/23 10:29:33;;;;;;;0.93;0.85;;;24.50;60.10;;;;;;5007647;28;20199;-74
2022/04/23 10:32:15;;;;;;;1.58;0.50;;;25.20;58.80;;;;;;5011865;28;20575;-74
2022/04/23 10:34:42;;;;;;;1.10;0.70;;;26.30;58.30;;;;;;5007866;28;20185;-74
2022/04/23 10:37:29;;;;;;;0.75;0.75;;;26.30;58.30;;;;;;5010882;28;20608;-75
2022/04/23 10:39:55;;;;;;;0.68;0.60;;;27.10;57.00;;;;;;5006888;28;20189;-74
2022/04/23 10:42:25;;;;;;;0.90;0.60;;;27.80;56.50;;;;;;5014915;28;20191;-75
2022/04/23 10:44:55;;;;;;;2.92;0.82;;;28.70;54.70;;;;;;5011693;28;20296;-75
2022/04/23 10:47:32;;;;;;;1.95;0.65;;;28.70;54.70;;;;;;5010780;28;20197;-74
2022/04/23 10:50:18;;;;;;;3.85;0.80;;;28.90;55.20;;;;;;5003084;28;20185;-75
2022/04/23 10:52:45;;;;;;;0.30;0.30;;;29.10;55.20;;;;;;5010378;28;20563;-74
2022/04/23 10:55:13;;;;;;;1.33;0.90;;;29.10;54.50;;;;;;5015162;28;20188;-74
2022/04/23 10:57:39;;;;;;;2.13;1.00;;;29.00;54.60;;;;;;5015172;28;20192;-75
2022/04/23 11:00:15;;;;;;;1.20;0.80;;;28.80;54.30;;;;;;5008788;28;21706;-75
2022/04/23 11:02:41;;;;;;;1.42;0.70;;;28.50;54.90;;;;;;5009966;28;20192;-75
2022/04/23 11:14:36;;;;;;;3.28;0.60;;;28.70;54.70;;;;;;5010641;28;20211;-74
2022/04/23 11:17:02;;;;;;;1.38;0.60;;;29.30;53.60;;;;;;5009424;28;20567;-75
2022/04/23 11:19:29;;;;;;;2.15;0.95;;;29.90;50.70;;;;;;5012071;28;20183;-76
2022/04/23 11:21:55;;;;;;;3.70;0.70;;;30.70;52.20;;;;;;5013158;28;20301;-75
2022/04/23 11:24:22;;;;;;;1.10;0.88;;;31.20;52.40;;;;;;5009575;28;20603;-75
2022/04/23 11:26:50;;;;;;;3.40;0.68;;;31.60;51.40;;;;;;5015980;28;20267;-74
2022/04/23 11:29:17;;;;;;;4.40;0.60;;;32.00;49.60;;;;;;5008368;28;20181;-75
2022/04/23 11:31:53;;;;;;;1.40;0.60;;;32.40;49.40;;;;;;5012529;28;20185;-75
2022/04/23 11:34:20;;;;;;;2.67;0.80;;;32.60;46.00;;;;;;5040412;28;20578;-75
2022/04/23 11:36:46;;;;;;;1.40;0.77;;;32.30;48.10;;;;;;5011425;28;20192;-75
2022/04/23 11:39:13;;;;;;;0.80;0.75;;;31.90;48.90;;;;;;5013274;28;20188;-74
2022/04/23 11:41:43;;;;;;;4.50;0.82;;;31.50;49.70;;;;;;5013305;28;20204;-74
2022/04/23 11:47:12;;;;;;;2.50;0.52;;;30.90;48.60;;;;;;5013347;28;20199;-76
2022/04/23 11:49:38;;;;;;;3.72;0.80;;;30.10;50.00;;;;;;5012322;28;21097;-76
2022/04/23 11:52:14;;;;;;;2.28;0.70;;;30.10;50.10;;;;;;5012592;28;20199;-76
2022/04/23 11:54:41;;;;;;;2.22;0.70;;;29.50;51.60;;;;;;5008428;28;20222;-76
2022/04/23 11:57:09;;;;;;;1.17;0.43;;;29.10;51.30;;;;;;5008662;28;20651;-76
2022/04/23 11:59:39;;;;;;;5.25;0.70;;;28.60;52.70;;;;;;5015339;28;20701;-76
2022/04/23 12:02:26;;;;;;;7.95;0.65;;;28.10;54.10;;;;;;5010646;28;20197;-76
2022/04/23 12:04:53;;;;;;;4.15;0.50;;;27.50;54.50;;;;;;5012187;28;20229;-75
2022/04/23 12:07:21;;;;;;;2.50;0.30;;;26.90;54.60;;;;;;5013183;28;20243;-76
2022/04/23 12:09:51;;;;;;;0.28;0.28;;;26.50;54.90;;;;;;5008860;28;20173;-75
2022/04/23 12:12:25;;;;;;;0.15;0.15;;;26.20;54.90;;;;;;5010682;28;20185;-74
2022/04/23 12:14:55;;;;;;;0.30;0.30;;;26.30;55.70;;;;;;5009902;28;20389;-75
2022/04/23 12:17:42;;;;;;;0.30;0.30;;;26.60;55.60;;;;;;5014707;28;20771;-75
2022/04/23 12:20:12;;;;;;;0.20;0.20;;;27.30;52.60;;;;;;5008850;28;20293;-76
2022/04/23 12:22:39;;;;;;;0.20;0.20;;;27.80;52.10;;;;;;5009833;28;20185;-74
2022/04/23 12:25:16;;;;;;;0.35;0.35;;;28.30;51.00;;;;;;5008381;28;20221;-75
2022/04/23 12:42:04;;;;;;;0.90;0.20;;;29.70;48.90;;;;;;5009569;28;20196;-76
2022/04/23 12:44:32;;;;;;;0.32;0.30;;;30.30;48.10;;;;;;5007399;28;20211;-76
2022/04/23 12:47:03;;;;;;;0.75;0.22;;;30.60;47.80;;;;;;5006052;28;20796;-77
2022/04/23 12:49:48;;;;;;;0.70;0.30;;;30.70;47.40;;;;;;5011475;28;20666;-75
2022/04/23 12:52:26;;;;;;;0.65;0.30;;;30.90;48.10;;;;;;5009420;28;20471;-75
2022/04/23 12:55:13;;;;;;;1.90;0.30;;;31.30;47.60;;;;;;5005721;28;20189;-77
2022/04/23 12:57:50;;;;;;;0.50;0.45;;;31.90;45.40;;;;;;5012457;28;20550;-77
2022/04/23 13:00:20;;;;;;;1.60;0.40;;;31.90;47.30;;;;;;5015260;28;20856;-77
2022/04/23 13:02:51;;;;;;;2.13;0.60;;;31.50;47.60;;;;;;5011730;28;21940;-77
2022/04/23 13:05:17;;;;;;;1.95;0.50;;;31.30;46.60;;;;;;5005898;28;20315;-76
2022/04/23 13:10:27;;;;;;;2.40;0.30;;;30.00;46.70;;;;;;5004106;28;20714;-75
2022/04/23 13:12:53;;;;;;;4.28;0.40;;;28.70;48.90;;;;;;5012788;28;20188;-76
2022/04/23 13:15:19;;;;;;;2.35;0.30;;;28.50;49.80;;;;;;5009566;28;20671;-75
2022/04/23 13:17:46;;;;;;;2.47;0.60;;;28.50;49.00;;;;;;5007756;28;20192;-75
2022/04/23 13:20:13;;;;;;;0.90;0.40;;;28.30;50.50;;;;;;5007705;28;20700;-76
2022/04/23 13:22:43;;;;;;;2.22;0.30;;;28.20;49.30;;;;;;5007526;28;20625;-76
2022/04/23 13:25:11;;;;;;;1.98;0.60;;;28.30;50.60;;;;;;5010157;28;20211;-76
2022/04/23 13:27:37;;;;;;;0.40;0.38;;;28.80;50.40;;;;;;5012807;28;20192;-76
2022/04/23 13:30:04;;;;;;;1.90;0.30;;;28.90;50.30;;;;;;5010818;28;20296;-76
2022/04/23 13:32:35;;;;;;;2.00;0.60;;;29.50;49.50;;;;;;5007701;28;20189;-75
2022/04/23 13:35:02;;;;;;;3.65;0.40;;;30.00;48.70;;;;;;5005136;28;20184;-76
2022/04/23 13:37:28;;;;;;;2.22;0.50;;;30.50;49.00;;;;;;5008937;28;20187;-76
2022/04/23 13:39:54;;;;;;;1.50;0.40;;;;;;;;;;5011740;28;20180;-76
2022/04/23 13:42:21;;;;;;;2.17;0.50;;;31.80;45.70;;;;;;5005352;28;20242;-77